Time;durP1;ratioP1;P1;durP2;ratioP2;P2;SDS_P1;SDS_P2;PMS_P1;PMS_P2;Temp;Humidity;BMP_temperature;BMP_pressure;BME280_temperature;BME280_humidity;BME280_pressure;Samples;Min_cycle;Max_cycle;Signal;HPM_P1;HPM_P2
2023/01/18 00:01:40;;;;;;;;;;;;;;;2.83;84.44;98906.41;7364747;19;20376;-59
2023/01/18 00:04:06;;;;;;;;;;;;;;;2.81;84.06;98911.75;7340042;19;19930;-59
2023/01/18 00:06:33;;;;;;;;;;;;;;;2.81;84.33;98922.13;7362826;19;20318;-62
2023/01/18 00:09:03;;;;;;;;;;;;;;;2.77;84.38;98915.63;7366298;19;20350;-61
2023/01/18 00:11:31;;;;;;;;;;;;;;;2.74;84.28;98917.72;7362104;19;20734;-63
2023/01/18 00:14:01;;;;;;;;;;;;;;;2.75;85.71;98909.75;7362135;19;20757;-62
2023/01/18 00:16:29;;;;;;;;;;;;;;;2.72;86.05;98907.47;7359481;19;20396;-58
2023/01/18 00:18:57;;;;;;;;;;;;;;;2.70;84.23;98903.38;7347183;19;19958;-58
2023/01/18 00:21:25;;;;;;;;;;;;;;;2.67;83.72;98899.31;7356117;19;19931;-61
2023/01/18 00:23:53;;;;;;;;;;;;;;;2.64;83.00;98910.00;7359253;19;19949;-60
2023/01/18 00:26:20;;;;;;;;;;;;;;;2.63;82.36;98898.00;7359216;19;20346;-63
2023/01/18 00:28:48;;;;;;;;;;;;;;;2.60;81.80;98903.47;7365584;19;19951;-65
2023/01/18 00:31:16;;;;;;;;;;;;;;;2.60;81.49;98895.69;7359864;19;19939;-65
2023/01/18 00:33:45;;;;;;;;;;;;;;;2.61;81.40;98896.50;7353711;19;20249;-62
2023/01/18 00:36:14;;;;;;;;;;;;;;;2.58;81.07;98906.22;7352455;19;19922;-62
2023/01/18 00:38:41;;;;;;;;;;;;;;;2.56;81.29;98909.94;7357125;19;20434;-62
2023/01/18 00:41:07;;;;;;;;;;;;;;;2.55;81.23;98913.47;7351311;19;20673;-57
2023/01/18 00:43:37;;;;;;;;;;;;;;;2.53;81.78;98912.84;7358018;19;19934;-59
2023/01/18 00:46:05;;;;;;;;;;;;;;;2.52;81.83;98904.22;7361467;19;19915;-63
2023/01/18 00:48:41;;;;;;;;;;;;;;;2.52;81.44;98922.41;7362974;19;19982;-66
2023/01/18 00:51:13;;;;;;;;;;;;;;;2.49;81.30;98908.88;7359046;19;19923;-62
2023/01/18 00:53:45;;;;;;;;;;;;;;;2.51;81.55;98901.78;7359217;19;20377;-61
2023/01/18 00:56:17;;;;;;;;;;;;;;;2.50;81.67;98898.34;7365447;19;19941;-60
2023/01/18 00:58:48;;;;;;;;;;;;;;;2.51;82.38;98900.00;7369771;19;19919;-63
2023/01/18 01:01:17;;;;;;;;;;;;;;;2.52;84.30;98904.22;7368688;19;19919;-64
2023/01/18 01:09:03;;;;;;;;;;;;;;;2.48;82.59;98904.69;7366464;19;20346;-63
2023/01/18 01:11:31;;;;;;;;;;;;;;;2.48;82.83;98905.50;7369044;19;20352;-65
2023/01/18 01:27:05;;;;;;;;;;;;;;;2.35;85.16;98906.81;7366453;19;20247;-64
2023/01/18 01:29:34;;;;;;;;;;;;;;;2.34;85.50;98907.78;7365097;19;19919;-63
2023/01/18 01:32:02;;;;;;;;;;;;;;;2.33;84.89;98911.34;7366535;19;19950;-61
2023/01/18 01:34:30;;;;;;;;;;;;;;;2.32;84.22;98917.50;7348558;19;20691;-64
2023/01/18 01:36:57;;;;;;;;;;;;;;;2.31;83.48;98919.28;7360846;19;19922;-64
2023/01/18 01:39:25;;;;;;;;;;;;;;;2.31;82.59;98926.25;7364456;19;19923;-64
2023/01/18 01:41:53;;;;;;;;;;;;;;;2.28;82.17;98927.38;7363359;19;19951;-66
2023/01/18 01:44:23;;;;;;;;;;;;;;;2.30;82.12;98941.00;7364978;19;20411;-62
2023/01/18 01:46:52;;;;;;;;;;;;;;;2.30;82.49;98925.44;7366281;19;20657;-60
2023/01/18 01:49:19;;;;;;;;;;;;;;;2.32;83.51;98930.47;7364987;19;19919;-57
2023/01/18 01:51:50;;;;;;;;;;;;;;;2.32;84.31;98927.88;7368085;19;19930;-60
2023/01/18 01:54:19;;;;;;;;;;;;;;;2.33;84.86;98934.72;7367029;19;19922;-59
2023/01/18 01:56:48;;;;;;;;;;;;;;;2.26;84.42;98942.25;7368156;19;20231;-59
2023/01/18 01:59:16;;;;;;;;;;;;;;;2.24;84.51;98941.56;7367038;19;19937;-63
2023/01/18 02:01:43;;;;;;;;;;;;;;;2.25;85.10;98942.38;7370575;19;19922;-59
2023/01/18 02:04:11;;;;;;;;;;;;;;;2.22;84.30;98935.72;7366118;19;19927;-59
2023/01/18 02:06:38;;;;;;;;;;;;;;;2.20;83.46;98953.22;7367446;19;19922;-61
2023/01/18 02:09:08;;;;;;;;;;;;;;;2.18;82.49;98954.34;7366896;19;20171;-61
2023/01/18 02:11:36;;;;;;;;;;;;;;;2.14;82.63;98946.00;7365076;19;19990;-58
2023/01/18 02:14:04;;;;;;;;;;;;;;;2.15;82.97;98950.22;7370319;19;19911;-61
2023/01/18 02:16:41;;;;;;;;;;;;;;;2.15;83.06;98937.28;7366242;19;19947;-61
2023/01/18 02:19:18;;;;;;;;;;;;;;;2.13;82.38;98944.41;7364491;19;19947;-59
2023/01/18 02:21:49;;;;;;;;;;;;;;;2.14;82.67;98946.00;7368202;19;19919;-62
2023/01/18 02:24:27;;;;;;;;;;;;;;;2.13;82.42;98949.59;7365352;19;19922;-60
2023/01/18 02:27:04;;;;;;;;;;;;;;;2.15;82.74;98955.41;7366521;19;19929;-61
2023/01/18 02:29:41;;;;;;;;;;;;;;;2.15;82.61;98952.84;7366485;19;19914;-60
2023/01/18 02:32:09;;;;;;;;;;;;;;;2.16;82.49;98954.47;7348460;19;19957;-61
2023/01/18 02:34:39;;;;;;;;;;;;;;;2.15;82.48;98953.66;7365587;19;19932;-59
2023/01/18 02:37:15;;;;;;;;;;;;;;;2.17;82.77;98948.31;7363744;19;19933;-61
2023/01/18 02:39:51;;;;;;;;;;;;;;;2.17;82.50;98952.69;7363869;19;20760;-59
2023/01/18 02:47:36;;;;;;;;;;;;;;;2.17;82.59;98948.31;7366359;19;19926;-60
2023/01/18 02:50:02;;;;;;;;;;;;;;;2.17;82.34;98950.91;7365235;19;19911;-58
2023/01/18 02:52:37;;;;;;;;;;;;;;;2.17;82.22;98947.50;7365208;19;19923;-61
2023/01/18 02:55:05;;;;;;;;;;;;;;;2.15;83.56;98940.69;7364890;19;20285;-60
2023/01/18 02:57:32;;;;;;;;;;;;;;;2.17;85.22;98950.91;7367654;19;19926;-60
2023/01/18 03:00:01;;;;;;;;;;;;;;;2.15;85.58;98945.06;7366559;19;19971;-59
2023/01/18 03:02:28;;;;;;;;;;;;;;;2.17;86.09;98958.69;7367837;19;19922;-61
2023/01/18 03:04:55;;;;;;;;;;;;;;;2.15;85.99;98950.22;7364556;19;19923;-61
2023/01/18 03:07:32;;;;;;;;;;;;;;;2.14;86.27;98957.19;7366178;19;19943;-60
2023/01/18 03:10:00;;;;;;;;;;;;;;;2.11;85.81;98951.50;7364402;19;19923;-59
2023/01/18 03:12:44;;;;;;;;;;;;;;;2.07;85.34;98950.97;7367288;19;19921;-60
2023/01/18 03:15:21;;;;;;;;;;;;;;;2.04;85.50;98950.44;7367075;19;19919;-60
2023/01/18 03:17:50;;;;;;;;;;;;;;;2.03;85.25;98951.41;7366161;19;19923;-59
2023/01/18 03:20:24;;;;;;;;;;;;;;;1.99;84.45;98944.88;7364448;19;19919;-58
2023/01/18 03:25:30;;;;;;;;;;;;;;;1.99;83.73;98950.06;7359294;19;19938;-57
2023/01/18 03:35:50;;;;;;;;;;;;;;;1.98;84.26;98946.66;7365968;19;20521;-60
2023/01/18 03:38:17;;;;;;;;;;;;;;;1.98;85.00;98949.22;7362902;19;19923;-56
2023/01/18 03:40:45;;;;;;;;;;;;;;;1.95;84.53;98956.50;7365410;19;19926;-57
2023/01/18 03:43:16;;;;;;;;;;;;;;;1.94;84.29;98944.50;7366310;19;20445;-60
2023/01/18 03:45:44;;;;;;;;;;;;;;;1.96;83.53;98940.00;7364460;19;19929;-55
2023/01/18 03:48:11;;;;;;;;;;;;;;;1.97;84.32;98936.44;7364682;19;20399;-60
2023/01/18 03:50:38;;;;;;;;;;;;;;;1.98;84.52;98932.88;7364038;19;19939;-60
2023/01/18 03:53:11;;;;;;;;;;;;;;;1.97;83.66;98942.44;7366934;19;19994;-60
2023/01/18 03:55:47;;;;;;;;;;;;;;;1.97;83.39;98939.84;7362513;19;19923;-57
2023/01/18 03:58:17;;;;;;;;;;;;;;;1.99;83.18;98940.50;7367233;19;19924;-58
2023/01/18 04:00:44;;;;;;;;;;;;;;;1.99;82.79;98944.88;7365480;19;19929;-59
2023/01/18 04:03:11;;;;;;;;;;;;;;;1.97;83.11;98949.41;7363714;19;19974;-59
2023/01/18 04:05:38;;;;;;;;;;;;;;;1.95;82.67;98951.31;7362143;19;20155;-57
2023/01/18 04:08:05;;;;;;;;;;;;;;;1.94;82.77;98953.09;7365361;19;19926;-60
2023/01/18 04:10:32;;;;;;;;;;;;;;;1.94;83.26;98944.50;7365975;19;20223;-60
2023/01/18 04:12:59;;;;;;;;;;;;;;;1.96;83.25;98946.00;7365604;19;19923;-60
2023/01/18 04:15:26;;;;;;;;;;;;;;;1.97;83.64;98952.00;7365003;19;19923;-60
2023/01/18 04:17:54;;;;;;;;;;;;;;;1.98;83.38;98951.03;7363528;19;19986;-60
2023/01/18 04:20:21;;;;;;;;;;;;;;;1.97;83.84;98949.41;7364880;19;19947;-61
2023/01/18 04:22:52;;;;;;;;;;;;;;;1.99;84.06;98950.06;7367151;19;19922;-62
2023/01/18 04:25:18;;;;;;;;;;;;;;;1.99;83.57;98956.06;7363508;19;19922;-57
2023/01/18 04:27:45;;;;;;;;;;;;;;;2.02;83.63;98957.56;7364929;19;19923;-59
2023/01/18 04:30:12;;;;;;;;;;;;;;;2.02;83.21;98950.59;7369424;19;19926;-61
2023/01/18 04:32:41;;;;;;;;;;;;;;;2.01;83.55;98950.75;7370404;19;20186;-59
2023/01/18 04:35:08;;;;;;;;;;;;;;;1.99;83.90;98937.91;7371757;19;20334;-59
2023/01/18 04:37:37;;;;;;;;;;;;;;;1.99;83.47;98948.28;7370184;19;20490;-59
2023/01/18 04:40:04;;;;;;;;;;;;;;;2.01;83.81;98951.56;7371008;19;19944;-57
2023/01/18 04:42:31;;;;;;;;;;;;;;;2.01;83.68;98945.56;7369341;19;19929;-58
2023/01/18 04:44:58;;;;;;;;;;;;;;;2.04;83.75;98953.84;7363294;19;19925;-59
2023/01/18 04:47:27;;;;;;;;;;;;;;;2.05;84.17;98946.88;7371433;19;21594;-59
2023/01/18 04:49:56;;;;;;;;;;;;;;;2.09;85.50;98956.00;7367397;19;19947;-59
2023/01/18 04:52:24;;;;;;;;;;;;;;;2.07;84.74;98960.53;7368130;19;20536;-63
2023/01/18 04:54:51;;;;;;;;;;;;;;;2.09;84.35;98967.19;7370605;19;19922;-59
2023/01/18 04:57:17;;;;;;;;;;;;;;;2.11;84.03;98965.28;7370966;19;19918;-59
2023/01/18 04:59:44;;;;;;;;;;;;;;;2.08;84.40;98962.16;7369955;19;20521;-59
2023/01/18 05:02:11;;;;;;;;;;;;;;;2.08;84.70;98967.34;7369856;19;20774;-63
2023/01/18 05:04:38;;;;;;;;;;;;;;;2.06;85.11;98975.28;7367164;19;19922;-61
2023/01/18 05:07:05;;;;;;;;;;;;;;;2.11;87.18;98969.66;7370461;19;19918;-61
2023/01/18 05:09:33;;;;;;;;;;;;;;;2.07;87.46;98976.91;7369998;19;20612;-57
2023/01/18 05:11:59;;;;;;;;;;;;;;;2.07;86.94;98982.09;7370888;19;20539;-58
2023/01/18 05:14:26;;;;;;;;;;;;;;;2.03;86.61;98979.94;7369407;19;19930;-59
2023/01/18 05:16:53;;;;;;;;;;;;;;;1.98;85.74;98967.38;7371239;19;20522;-62
2023/01/18 05:19:20;;;;;;;;;;;;;;;1.94;85.39;98975.59;7369131;19;19919;-56
2023/01/18 05:21:46;;;;;;;;;;;;;;;1.88;85.23;98977.00;7372618;19;20015;-56
2023/01/18 05:24:13;;;;;;;;;;;;;;;1.84;85.23;98970.47;7367836;19;19927;-59
2023/01/18 05:26:40;;;;;;;;;;;;;;;1.84;85.63;98978.25;7368894;19;19918;-58
2023/01/18 05:29:07;;;;;;;;;;;;;;;1.83;85.38;98983.59;7369526;19;19918;-57
2023/01/18 05:31:34;;;;;;;;;;;;;;;1.82;85.34;98979.34;7369932;19;19929;-59
2023/01/18 05:34:01;;;;;;;;;;;;;;;1.83;85.54;98976.59;7369064;19;20336;-63
2023/01/18 05:36:27;;;;;;;;;;;;;;;1.86;86.03;98978.94;7370255;19;20391;-60
2023/01/18 05:38:54;;;;;;;;;;;;;;;1.89;86.35;98976.03;7370380;19;19923;-60
2023/01/18 05:41:21;;;;;;;;;;;;;;;1.94;86.89;98970.41;7368357;19;20027;-57
2023/01/18 05:43:48;;;;;;;;;;;;;;;1.99;87.75;98970.78;7371146;19;19941;-61
2023/01/18 05:46:15;;;;;;;;;;;;;;;2.03;87.78;98985.13;7368249;19;20265;-61
2023/01/18 05:48:41;;;;;;;;;;;;;;;2.03;86.74;98980.72;7372088;19;20016;-60
2023/01/18 05:51:09;;;;;;;;;;;;;;;2.03;86.09;98982.53;7368611;19;19934;-59
2023/01/18 05:53:36;;;;;;;;;;;;;;;2.04;85.38;98987.56;7369444;19;20226;-58
2023/01/18 05:56:04;;;;;;;;;;;;;;;2.05;85.45;98985.78;7366230;19;19944;-63
2023/01/18 05:58:31;;;;;;;;;;;;;;;2.05;86.22;98991.78;7370756;19;20334;-60
2023/01/18 06:00:58;;;;;;;;;;;;;;;2.09;86.82;98992.31;7369826;19;19923;-56
2023/01/18 06:03:25;;;;;;;;;;;;;;;2.10;86.87;98997.34;7367058;19;20531;-59
2023/01/18 06:05:52;;;;;;;;;;;;;;;2.11;87.58;98993.81;7362750;19;19923;-61
2023/01/18 06:08:19;;;;;;;;;;;;;;;2.10;87.15;99002.53;7367247;19;19918;-60
2023/01/18 06:10:59;;;;;;;;;;;;;;;2.07;86.85;98999.44;7366342;19;20955;-59
2023/01/18 06:13:28;;;;;;;;;;;;;;;2.04;85.84;98995.34;7371329;19;19922;-60
2023/01/18 06:15:55;;;;;;;;;;;;;;;2.04;85.03;99000.53;7368654;19;19922;-59
2023/01/18 06:18:23;;;;;;;;;;;;;;;2.04;85.29;99000.53;7370942;19;19974;-59
2023/01/18 06:20:58;;;;;;;;;;;;;;;2.07;85.80;99000.25;7366172;19;19922;-60
2023/01/18 06:23:27;;;;;;;;;;;;;;;2.07;86.08;99000.25;7367478;19;20105;-57
2023/01/18 06:25:54;;;;;;;;;;;;;;;2.09;86.17;99000.09;7366780;19;19932;-58
2023/01/18 06:28:22;;;;;;;;;;;;;;;2.08;85.73;99008.84;7371176;19;19923;-57
2023/01/18 06:30:53;;;;;;;;;;;;;;;2.07;85.14;99010.63;7365710;19;19938;-63
2023/01/18 06:33:21;;;;;;;;;;;;;;;2.08;85.48;99007.03;7370325;19;20344;-65
2023/01/18 06:35:48;;;;;;;;;;;;;;;2.09;86.10;99000.09;7366216;19;20041;-69
2023/01/18 06:38:15;;;;;;;;;;;;;;;2.16;87.09;99008.94;7364947;19;19979;-59
2023/01/18 06:40:42;;;;;;;;;;;;;;;2.18;87.01;99009.63;7366738;19;19962;-61
2023/01/18 06:43:12;;;;;;;;;;;;;;;2.20;86.59;99012.88;7366310;19;19994;-57
2023/01/18 06:45:40;;;;;;;;;;;;;;;2.20;86.21;99018.06;7365340;19;19925;-59
2023/01/18 06:48:07;;;;;;;;;;;;;;;2.21;85.71;99024.88;7370614;19;19918;-61
2023/01/18 06:50:34;;;;;;;;;;;;;;;2.24;85.71;99023.75;7365785;19;19923;-60
2023/01/18 06:53:01;;;;;;;;;;;;;;;2.24;85.65;99040.13;7366808;19;20300;-60
2023/01/18 06:55:27;;;;;;;;;;;;;;;2.25;85.54;99033.19;7363592;19;19922;-59
2023/01/18 06:57:55;;;;;;;;;;;;;;;2.27;85.23;99041.66;7367195;19;19923;-58
2023/01/18 07:00:23;;;;;;;;;;;;;;;2.29;85.17;99040.53;7366704;19;19921;-58
2023/01/18 07:02:50;;;;;;;;;;;;;;;2.29;84.76;99052.66;7369250;19;19945;-64
2023/01/18 07:05:17;;;;;;;;;;;;;;;2.30;84.79;99049.13;7367373;19;19974;-60
2023/01/18 07:07:45;;;;;;;;;;;;;;;2.31;85.75;99053.34;7366882;19;20456;-58
2023/01/18 07:10:12;;;;;;;;;;;;;;;2.29;85.93;99044.91;7365946;19;19926;-60
2023/01/18 07:12:42;;;;;;;;;;;;;;;2.29;86.00;99065.66;7363151;19;19972;-59
2023/01/18 07:15:09;;;;;;;;;;;;;;;2.31;86.00;99063.75;7365766;19;19925;-56
2023/01/18 07:17:49;;;;;;;;;;;;;;;2.30;85.60;99068.09;7368539;19;20014;-60
2023/01/18 07:20:16;;;;;;;;;;;;;;;2.30;85.48;99075.06;7369210;19;19925;-60
2023/01/18 07:22:43;;;;;;;;;;;;;;;2.32;85.17;99081.75;7367869;19;21221;-56
2023/01/18 07:25:12;;;;;;;;;;;;;;;2.35;85.75;99083.25;7363990;19;19922;-61
2023/01/18 07:27:42;;;;;;;;;;;;;;;2.37;86.02;99089.09;7363390;19;20292;-57
2023/01/18 07:30:11;;;;;;;;;;;;;;;2.34;85.91;99085.00;7366075;19;20030;-59
2023/01/18 07:32:38;;;;;;;;;;;;;;;2.35;86.41;99085.81;7366245;19;20621;-59
2023/01/18 07:35:05;;;;;;;;;;;;;;;2.35;86.50;99085.81;7370565;19;20303;-61
2023/01/18 07:37:32;;;;;;;;;;;;;;;2.34;86.32;99084.19;7364436;19;19926;-60
2023/01/18 07:40:04;;;;;;;;;;;;;;;2.33;86.62;99091.19;7361041;19;20248;-58
2023/01/18 07:42:30;;;;;;;;;;;;;;;2.32;86.63;99091.31;7364042;19;19915;-59
2023/01/18 07:44:57;;;;;;;;;;;;;;;2.30;86.42;99094.03;7367936;19;20289;-58
2023/01/18 07:47:24;;;;;;;;;;;;;;;2.27;86.18;99091.75;7369088;19;20013;-62
2023/01/18 07:49:51;;;;;;;;;;;;;;;2.29;86.91;99095.00;7365735;19;20245;-58
2023/01/18 07:52:18;;;;;;;;;;;;;;;2.28;86.74;99098.59;7365939;19;19923;-59
2023/01/18 07:54:45;;;;;;;;;;;;;;;2.27;86.42;99096.13;7363871;19;19919;-61
2023/01/18 07:57:12;;;;;;;;;;;;;;;2.28;86.37;99097.75;7369662;19;20301;-61
2023/01/18 07:59:39;;;;;;;;;;;;;;;2.28;85.84;99103.78;7367014;19;19919;-59
2023/01/18 08:02:07;;;;;;;;;;;;;;;2.33;86.50;99106.75;7366229;19;19918;-59
2023/01/18 08:04:34;;;;;;;;;;;;;;;2.73;96.18;99114.19;7363223;19;20340;-60
2023/01/18 08:07:01;;;;;;;;;;;;;;;2.75;95.38;99119.22;7368751;19;19923;-62
2023/01/18 08:09:28;;;;;;;;;;;;;;;2.70;92.84;99121.44;7364407;19;19935;-59
2023/01/18 08:11:55;;;;;;;;;;;;;;;2.64;90.33;99128.03;7357484;19;19921;-58
2023/01/18 08:14:21;;;;;;;;;;;;;;;2.60;88.34;99118.88;7362812;19;19923;-60
2023/01/18 08:16:48;;;;;;;;;;;;;;;2.59;86.98;99119.88;7369886;19;20348;-60
2023/01/18 08:19:16;;;;;;;;;;;;;;;2.57;86.48;99124.38;7364089;19;20033;-59
2023/01/18 08:21:43;;;;;;;;;;;;;;;2.57;86.09;99124.38;7366444;19;19919;-60
2023/01/18 08:24:11;;;;;;;;;;;;;;;2.57;86.50;99120.00;7361355;19;19926;-61
2023/01/18 08:26:38;;;;;;;;;;;;;;;2.59;87.16;99127.66;7363478;19;20359;-59
2023/01/18 08:29:05;;;;;;;;;;;;;;;2.56;86.97;99131.34;7366029;19;19985;-58
2023/01/18 08:31:32;;;;;;;;;;;;;;;2.58;87.09;99141.59;7364427;19;20833;-57
2023/01/18 08:34:00;;;;;;;;;;;;;;;2.57;87.08;99147.75;7366850;19;20341;-59
2023/01/18 08:36:27;;;;;;;;;;;;;;;2.57;87.03;99156.34;7362010;19;19939;-59
2023/01/18 08:38:56;;;;;;;;;;;;;;;2.58;87.08;99162.34;7365126;19;19994;-59
2023/01/18 08:41:27;;;;;;;;;;;;;;;2.60;86.66;99155.22;7366021;19;20001;-59
2023/01/18 08:43:54;;;;;;;;;;;;;;;2.61;86.27;99174.22;7364141;19;19922;-60
2023/01/18 08:46:22;;;;;;;;;;;;;;;2.59;85.72;99176.97;7362108;19;20690;-60
2023/01/18 08:48:49;;;;;;;;;;;;;;;2.60;85.52;99183.78;7359883;19;19922;-61
2023/01/18 08:51:17;;;;;;;;;;;;;;;2.61;85.51;99184.59;7363878;19;19926;-61
2023/01/18 08:53:45;;;;;;;;;;;;;;;2.61;84.86;99193.22;7363112;19;20719;-60
2023/01/18 08:56:12;;;;;;;;;;;;;;;2.62;85.00;99192.25;7362853;19;19927;-61
2023/01/18 08:58:39;;;;;;;;;;;;;;;2.63;84.96;99191.31;7362288;19;19990;-59
2023/01/18 09:01:07;;;;;;;;;;;;;;;2.61;84.62;99195.81;7364053;19;19919;-61
2023/01/18 09:03:35;;;;;;;;;;;;;;;2.62;84.86;99196.63;7365208;19;19943;-59
2023/01/18 09:06:03;;;;;;;;;;;;;;;2.65;84.82;99196.31;7361248;19;20311;-62
2023/01/18 09:08:30;;;;;;;;;;;;;;;2.69;85.05;99197.69;7362791;19;19956;-61
2023/01/18 09:11:07;;;;;;;;;;;;;;;2.71;85.06;99193.16;7365329;19;20326;-59
2023/01/18 09:13:33;;;;;;;;;;;;;;;2.76;85.16;99188.34;7363512;19;20266;-59
2023/01/18 09:16:01;;;;;;;;;;;;;;;2.77;85.91;99195.19;7369064;19;19939;-60
2023/01/18 09:18:29;;;;;;;;;;;;;;;2.83;86.44;99192.03;7368563;19;19926;-60
2023/01/18 09:20:56;;;;;;;;;;;;;;;2.85;86.52;99192.69;7369232;19;19918;-62
2023/01/18 09:23:24;;;;;;;;;;;;;;;2.89;86.55;99194.88;7368181;19;19921;-60
2023/01/18 09:26:01;;;;;;;;;;;;;;;2.90;86.78;99191.28;7353589;19;19918;-59
2023/01/18 09:28:28;;;;;;;;;;;;;;;2.91;86.24;99198.13;7363758;19;20259;-59
2023/01/18 09:30:59;;;;;;;;;;;;;;;2.95;86.06;99188.25;7366864;19;19934;-59
2023/01/18 09:33:27;;;;;;;;;;;;;;;2.99;86.18;99192.22;7366847;19;19990;-60
2023/01/18 09:36:04;;;;;;;;;;;;;;;3.04;86.35;99196.97;7367038;19;19935;-60
2023/01/18 09:38:31;;;;;;;;;;;;;;;3.09;86.89;99200.78;7363206;19;20002;-60
2023/01/18 09:40:58;;;;;;;;;;;;;;;3.13;86.82;99201.28;7365790;19;19919;-58
2023/01/18 09:43:27;;;;;;;;;;;;;;;3.15;86.94;99205.34;7364367;19;19936;-60
2023/01/18 09:45:55;;;;;;;;;;;;;;;3.16;86.84;99211.38;7366549;19;19918;-58
2023/01/18 09:48:27;;;;;;;;;;;;;;;3.20;87.21;99205.75;7368061;19;19970;-58
2023/01/18 09:50:57;;;;;;;;;;;;;;;3.23;86.48;99209.84;7367650;19;20005;-61
2023/01/18 09:53:33;;;;;;;;;;;;;;;3.26;86.02;99212.13;7367955;19;21158;-58
2023/01/18 09:56:15;;;;;;;;;;;;;;;3.26;85.68;99219.94;7365938;19;19923;-55
2023/01/18 09:58:45;;;;;;;;;;;;;;;3.30;85.23;99229.88;7369829;19;19934;-59
2023/01/18 10:01:16;;;;;;;;;;;;;;;3.33;85.46;99237.41;7367395;19;19911;-59
2023/01/18 10:03:46;;;;;;;;;;;;;;;3.36;85.17;99233.69;7366744;19;20028;-58
2023/01/18 10:06:18;;;;;;;;;;;;;;;3.42;85.90;99240.91;7367172;19;19914;-60
2023/01/18 10:08:48;;;;;;;;;;;;;;;3.47;86.33;99246.47;7368443;19;20246;-58
2023/01/18 10:11:21;;;;;;;;;;;;;;;3.53;85.48;99248.50;7366758;19;19930;-57
2023/01/18 10:13:56;;;;;;;;;;;;;;;3.57;84.93;99249.81;7364537;19;19918;-59
2023/01/18 10:16:24;;;;;;;;;;;;;;;3.62;84.72;99260.59;7368942;19;19927;-57
2023/01/18 10:18:54;;;;;;;;;;;;;;;3.68;85.06;99260.00;7368463;19;20605;-58
2023/01/18 10:21:33;;;;;;;;;;;;;;;3.74;85.00;99266.41;7367949;19;19993;-57
2023/01/18 10:24:09;;;;;;;;;;;;;;;3.80;85.33;99273.63;7366932;19;19998;-60
2023/01/18 10:26:37;;;;;;;;;;;;;;;3.87;84.66;99272.03;7360764;19;20263;-59
2023/01/18 10:29:14;;;;;;;;;;;;;;;3.93;84.46;99273.22;7361290;19;19923;-59
2023/01/18 10:31:43;;;;;;;;;;;;;;;3.97;84.24;99283.19;7365359;19;19918;-60
2023/01/18 10:34:15;;;;;;;;;;;;;;;4.00;83.58;99290.72;7367285;19;19922;-58
2023/01/18 10:36:44;;;;;;;;;;;;;;;4.04;83.15;99296.44;7365257;19;19967;-62
2023/01/18 10:39:21;;;;;;;;;;;;;;;4.07;83.42;99283.09;7365830;19;20328;-62
2023/01/18 10:41:48;;;;;;;;;;;;;;;4.11;83.32;99287.06;7363213;19;20459;-58
2023/01/18 10:44:15;;;;;;;;;;;;;;;4.13;83.51;99291.13;7368096;19;19922;-60
2023/01/18 10:46:44;;;;;;;;;;;;;;;4.17;82.86;99284.66;7364247;19;19978;-60
2023/01/18 10:49:31;;;;;;;;;;;;;;;4.23;83.08;99298.88;7365091;19;19919;-59
2023/01/18 10:52:15;;;;;;;;;;;;;;;4.28;82.82;99296.63;7365448;19;20545;-59
2023/01/18 10:54:50;;;;;;;;;;;;;;;4.34;82.99;99296.03;7363747;19;19927;-60
2023/01/18 10:57:20;;;;;;;;;;;;;;;4.36;82.88;99298.50;7366144;19;19926;-60
2023/01/18 10:59:49;;;;;;;;;;;;;;;4.36;83.57;99309.72;7361956;19;19931;-60
2023/01/18 11:02:26;;;;;;;;;;;;;;;4.41;83.48;99304.06;7363598;19;19957;-60
2023/01/18 11:04:56;;;;;;;;;;;;;;;4.42;83.48;99316.13;7364188;19;19923;-58
2023/01/18 11:07:24;;;;;;;;;;;;;;;4.42;83.44;99308.31;7362901;19;19927;-56
2023/01/18 11:09:54;;;;;;;;;;;;;;;4.40;83.73;99307.63;7365122;19;19954;-55
2023/01/18 11:12:33;;;;;;;;;;;;;;;4.44;83.74;99306.34;7363261;19;19998;-58
2023/01/18 11:15:13;;;;;;;;;;;;;;;4.52;83.63;99311.63;7362748;19;19945;-59
2023/01/18 11:17:54;;;;;;;;;;;;;;;4.58;83.48;99311.81;7367390;19;19930;-58
2023/01/18 11:20:29;;;;;;;;;;;;;;;4.65;83.62;99314.63;7366136;19;20433;-59
2023/01/18 11:22:57;;;;;;;;;;;;;;;4.72;83.38;99315.69;7364854;19;19923;-56
2023/01/18 11:25:26;;;;;;;;;;;;;;;4.75;83.56;99312.75;7363274;19;20346;-62
2023/01/18 11:28:00;;;;;;;;;;;;;;;4.81;83.81;99326.97;7362163;19;19918;-59
2023/01/18 11:30:29;;;;;;;;;;;;;;;4.88;83.66;99322.75;7359045;19;19918;-60
2023/01/18 11:32:58;;;;;;;;;;;;;;;4.91;82.15;99325.06;7365659;19;19925;-62
2023/01/18 11:35:29;;;;;;;;;;;;;;;4.97;82.28;99319.25;7363334;19;21249;-61
2023/01/18 11:37:58;;;;;;;;;;;;;;;5.03;81.91;99329.84;7359661;19;19923;-56
2023/01/18 11:40:27;;;;;;;;;;;;;;;5.04;81.89;99328.06;7360151;19;20015;-58
2023/01/18 11:42:58;;;;;;;;;;;;;;;5.09;82.53;99323.19;7362771;19;19927;-57
2023/01/18 11:45:28;;;;;;;;;;;;;;;5.15;83.05;99333.00;7362728;19;19968;-61
2023/01/18 11:47:58;;;;;;;;;;;;;;;5.16;82.44;99324.22;7362943;19;19944;-59
2023/01/18 11:50:28;;;;;;;;;;;;;;;5.20;82.19;99335.97;7362631;19;19930;-60
2023/01/18 11:52:56;;;;;;;;;;;;;;;5.24;81.47;99334.69;7362783;19;20521;-60
2023/01/18 11:55:23;;;;;;;;;;;;;;;5.29;81.33;99339.41;7362110;19;19939;-58
2023/01/18 11:57:52;;;;;;;;;;;;;;;5.33;81.12;99338.16;7363913;19;19922;-60
2023/01/18 12:00:26;;;;;;;;;;;;;;;5.35;81.37;99341.41;7362784;19;19983;-57
2023/01/18 12:03:10;;;;;;;;;;;;;;;5.40;81.44;99332.16;7364262;19;20280;-62
2023/01/18 12:05:40;;;;;;;;;;;;;;;5.45;81.04;99335.09;7364623;19;19957;-61
2023/01/18 12:08:13;;;;;;;;;;;;;;;5.47;80.83;99340.97;7363855;19;20265;-60
2023/01/18 12:10:41;;;;;;;;;;;;;;;5.51;80.79;99334.47;7363660;19;19919;-57
2023/01/18 12:13:17;;;;;;;;;;;;;;;5.56;80.86;99336.59;7362382;19;19929;-61
2023/01/18 12:15:53;;;;;;;;;;;;;;;5.62;80.59;99346.41;7360615;19;19919;-59
2023/01/18 12:18:20;;;;;;;;;;;;;;;5.65;80.10;99333.03;7365224;19;19926;-59
2023/01/18 12:20:57;;;;;;;;;;;;;;;5.69;79.96;99328.34;7363245;19;19919;-55
2023/01/18 12:23:34;;;;;;;;;;;;;;;5.73;80.48;99334.88;7362721;19;19918;-57
2023/01/18 12:26:11;;;;;;;;;;;;;;;5.75;80.70;99330.28;7364081;19;19923;-59
2023/01/18 12:28:47;;;;;;;;;;;;;;;5.80;80.82;99341.06;7363756;19;20574;-56
2023/01/18 12:31:23;;;;;;;;;;;;;;;5.83;80.69;99335.56;7364762;19;19959;-61
2023/01/18 12:34:00;;;;;;;;;;;;;;;5.89;80.43;99345.38;7363914;19;19926;-61
2023/01/18 12:36:37;;;;;;;;;;;;;;;5.95;80.14;99344.72;7365164;19;19919;-61
2023/01/18 12:39:12;;;;;;;;;;;;;;;6.07;80.35;99347.84;7362016;19;19936;-57
2023/01/18 12:41:40;;;;;;;;;;;;;;;6.14;79.68;99359.31;7364195;19;19923;-58
2023/01/18 12:44:17;;;;;;;;;;;;;;;6.20;79.42;99356.84;7366042;19;20475;-59
2023/01/18 12:46:51;;;;;;;;;;;;;;;6.24;78.81;99355.56;7363787;19;19947;-59
2023/01/18 12:49:20;;;;;;;;;;;;;;;6.31;79.05;99366.16;7364327;19;20674;-57
2023/01/18 12:51:51;;;;;;;;;;;;;;;6.34;78.87;99353.63;7371141;19;19926;-59
2023/01/18 12:54:23;;;;;;;;;;;;;;;6.36;79.00;99366.50;7370344;19;19922;-59
2023/01/18 12:56:53;;;;;;;;;;;;;;;6.40;80.07;99367.78;7367579;19;20079;-60
2023/01/18 12:59:27;;;;;;;;;;;;;;;6.40;80.22;99359.97;7369704;19;19978;-59
2023/01/18 13:02:14;;;;;;;;;;;;;;;6.39;79.68;99366.19;7367907;19;19926;-59
2023/01/18 13:04:43;;;;;;;;;;;;;;;6.41;77.92;99366.81;7367396;19;19919;-58
2023/01/18 13:07:12;;;;;;;;;;;;;;;6.41;77.22;99367.63;7367838;19;19927;-56
2023/01/18 13:09:43;;;;;;;;;;;;;;;6.37;77.21;99376.78;7366228;19;20967;-62
2023/01/18 13:12:12;;;;;;;;;;;;;;;6.35;77.73;99373.50;7368126;19;21229;-58
2023/01/18 13:14:48;;;;;;;;;;;;;;;6.41;78.41;99379.88;7368210;19;19927;-60
2023/01/18 13:17:24;;;;;;;;;;;;;;;6.44;78.57;99369.13;7370242;19;19947;-60
2023/01/18 13:20:10;;;;;;;;;;;;;;;6.50;78.77;99370.28;7372884;19;20310;-63
2023/01/18 13:22:46;;;;;;;;;;;;;;;6.55;78.17;99376.66;7369704;19;19927;-59
2023/01/18 13:25:25;;;;;;;;;;;;;;;6.60;77.88;99387.41;7369284;19;19927;-60
2023/01/18 13:28:01;;;;;;;;;;;;;;;6.65;77.71;99385.13;7364858;19;20256;-57
2023/01/18 13:30:30;;;;;;;;;;;;;;;6.75;78.08;99390.19;7370063;19;19923;-61
2023/01/18 13:32:58;;;;;;;;;;;;;;;6.78;77.12;99390.66;7370860;19;20301;-58
2023/01/18 13:35:31;;;;;;;;;;;;;;;6.83;75.89;99398.84;7369815;19;20490;-60
2023/01/18 13:38:00;;;;;;;;;;;;;;;6.90;75.78;99400.81;7368535;19;19923;-60
2023/01/18 13:40:30;;;;;;;;;;;;;;;6.87;74.64;99405.38;7368287;19;19914;-61
2023/01/18 13:42:58;;;;;;;;;;;;;;;6.86;74.20;99405.53;7371706;19;20006;-61
2023/01/18 13:45:27;;;;;;;;;;;;;;;6.87;74.83;99404.53;7369627;19;19959;-60